createdAt,value
2022-08-20T00:02:03.201Z,99327.25
2022-08-20T00:04:51.923Z,99321.72
2022-08-20T00:07:39.942Z,99322.50
2022-08-20T00:10:28.773Z,99317.00
2022-08-20T00:13:23.146Z,99320.75
2022-08-20T00:16:12.024Z,99313.41
2022-08-20T00:19:01.705Z,99317.47
2022-08-20T00:21:49.831Z,99314.63
2022-08-20T00:24:38.230Z,99332.25
2022-08-20T00:27:34.051Z,99328.38
2022-08-20T00:33:43.314Z,99335.81
2022-08-20T00:36:54.946Z,99324.56
2022-08-20T00:41:03.098Z,99342.16
2022-08-20T00:44:24.555Z,99347.63
2022-08-20T00:47:29.725Z,99344.47
2022-08-20T00:50:56.130Z,99339.16
2022-08-20T00:54:12.980Z,99342.13
2022-08-20T00:58:00.898Z,99346.16
2022-08-20T01:01:18.889Z,99347.03
2022-08-20T01:04:11.232Z,99352.53
2022-08-20T01:06:58.966Z,99361.56
2022-08-20T01:09:57.732Z,99362.66
2022-08-20T01:12:49.340Z,99364.34
2022-08-20T01:15:47.324Z,99378.66
2022-08-20T01:18:35.559Z,99373.22
2022-08-20T01:21:27.274Z,99370.25
2022-08-20T01:24:26.611Z,99370.88
2022-08-20T01:27:19.209Z,99379.91
2022-08-20T01:30:13.537Z,99378.31
2022-08-20T01:33:02.695Z,99387.38
2022-08-20T01:35:51.620Z,99378.31
2022-08-20T01:38:53.128Z,99380.22
2022-08-20T01:42:02.990Z,99383.91
2022-08-20T01:44:52.952Z,99389.53
2022-08-20T01:47:46.011Z,99389.06
2022-08-20T01:50:42.231Z,99388.56
2022-08-20T01:53:35.953Z,99385.44
2022-08-20T01:56:29.846Z,99383.88
2022-08-20T01:59:17.871Z,99389.47
2022-08-20T02:02:07.443Z,99391.34
2022-08-20T02:04:55.757Z,99382.31
2022-08-20T02:07:48.759Z,99386.81
2022-08-20T02:10:36.842Z,99388.22
2022-08-20T02:13:25.061Z,99393.81
2022-08-20T02:16:13.207Z,99390.41
2022-08-20T02:19:11.999Z,99401.00
2022-08-20T02:22:08.228Z,99405.31
2022-08-20T02:24:59.105Z,99403.75
2022-08-20T02:27:49.752Z,99401.59
2022-08-20T02:30:41.890Z,99393.94
2022-08-20T02:33:31.696Z,99405.94
2022-08-20T02:36:22.015Z,99408.09
2022-08-20T02:39:13.259Z,99406.53
2022-08-20T02:42:05.249Z,99407.59
2022-08-20T02:44:58.885Z,99399.66
2022-08-20T02:47:52.241Z,99397.00
2022-08-20T02:50:44.368Z,99399.34
2022-08-20T02:53:38.112Z,99401.25
2022-08-20T02:56:25.938Z,99398.59
2022-08-20T03:03:48.939Z,99400.56
2022-08-20T03:07:46.326Z,99396.94
2022-08-20T03:11:40.514Z,99393.38
2022-08-20T03:14:29.021Z,99404.94
2022-08-20T03:17:26.725Z,99405.44
2022-08-20T03:21:14.723Z,99402.00
2022-08-20T03:24:40.759Z,99391.84
2022-08-20T03:27:32.732Z,99388.28
2022-08-20T03:30:31.311Z,99381.59
2022-08-20T03:37:24.222Z,99390.63
2022-08-20T03:40:40.456Z,99388.00
2022-08-20T03:43:52.826Z,99388.88
2022-08-20T03:47:11.226Z,99382.03
2022-08-20T03:50:54.905Z,99395.44
2022-08-20T03:54:14.561Z,99394.66
2022-08-20T03:58:04.248Z,99396.84
2022-08-20T04:01:44.543Z,99395.88
2022-08-20T04:05:20.177Z,99393.03
2022-08-20T04:08:19.882Z,99386.03
2022-08-20T04:11:16.669Z,99396.03
2022-08-20T04:14:20.574Z,99393.59
2022-08-20T04:21:54.718Z,99384.19
2022-08-20T04:24:43.112Z,99393.38
2022-08-20T04:33:34.035Z,99392.56
2022-08-20T04:37:34.375Z,99391.94
2022-08-20T04:44:40.565Z,99399.28
2022-08-20T04:47:34.636Z,99400.25
2022-08-20T04:50:24.682Z,99403.38
2022-08-20T04:53:20.696Z,99415.25
2022-08-20T04:56:10.560Z,99412.59
2022-08-20T04:59:01.487Z,99409.19
2022-08-20T05:01:48.762Z,99401.53
2022-08-20T05:04:37.661Z,99417.13
2022-08-20T05:07:26.310Z,99416.03
2022-08-20T05:10:16.698Z,99425.53
2022-08-20T05:13:04.129Z,99424.78
2022-08-20T05:15:51.777Z,99423.19
2022-08-20T05:18:39.489Z,99423.19
2022-08-20T05:21:27.033Z,99425.84
2022-08-20T05:24:16.493Z,99436.16
2022-08-20T05:27:03.923Z,99437.41
2022-08-20T05:29:53.396Z,99441.63
2022-08-20T05:32:44.717Z,99442.41
2022-08-20T05:35:34.835Z,99449.00
2022-08-20T05:38:29.453Z,99447.09
2022-08-20T05:41:27.515Z,99455.06
2022-08-20T05:44:17.780Z,99454.00
2022-08-20T05:47:06.290Z,99454.00
2022-08-20T05:49:53.840Z,99463.19
2022-08-20T05:52:41.607Z,99463.97
2022-08-20T05:55:29.678Z,99468.66
2022-08-20T05:58:22.546Z,99457.31
2022-08-20T06:01:10.703Z,99459.66
2022-08-20T06:04:16.405Z,99462.00
2022-08-20T06:07:06.681Z,99468.06
2022-08-20T06:09:54.178Z,99466.69
2022-08-20T06:12:44.409Z,99465.91
2022-08-20T06:15:34.755Z,99471.69
2022-08-20T06:18:28.319Z,99467.69
2022-08-20T06:21:16.392Z,99463.13
2022-08-20T06:24:03.931Z,99465.47
2022-08-20T06:26:57.450Z,99453.53
2022-08-20T06:29:44.800Z,99460.97
2022-08-20T06:32:33.636Z,99470.97
2022-08-20T06:35:21.229Z,99475.19
2022-08-20T06:38:12.525Z,99474.09
2022-08-20T06:41:00.294Z,99470.69
2022-08-20T06:43:47.937Z,99474.91
2022-08-20T06:46:36.217Z,99485.19
2022-08-20T06:49:24.937Z,99487.56
2022-08-20T06:52:15.880Z,99490.41
2022-08-20T06:55:04.405Z,99492.00
2022-08-20T06:57:59.665Z,99488.25
2022-08-20T07:00:48.139Z,99483.72
2022-08-20T07:03:38.066Z,99487.63
2022-08-20T07:06:27.933Z,99492.94
2022-08-20T07:09:15.281Z,99494.50
2022-08-20T07:12:02.566Z,99489.19
2022-08-20T07:14:51.007Z,99494.50
2022-08-20T07:17:39.815Z,99494.50
2022-08-20T07:20:28.148Z,99492.94
2022-08-20T07:23:16.802Z,99501.19
2022-08-20T07:26:04.443Z,99503.06
2022-08-20T07:28:52.122Z,99504.16
2022-08-20T07:31:56.971Z,99493.53
2022-08-20T07:34:44.779Z,99496.19
2022-08-20T07:37:32.149Z,99498.53
2022-08-20T07:40:26.297Z,99494.50
2022-08-20T07:43:15.674Z,99501.41
2022-08-20T07:46:09.402Z,99501.56
2022-08-20T07:48:57.301Z,99500.97
2022-08-20T07:51:44.661Z,99510.97
2022-08-20T07:54:32.235Z,99511.44
2022-08-20T07:57:21.214Z,99513.03
2022-08-20T08:00:12.358Z,99505.81
2022-08-20T08:03:00.185Z,99508.19
2022-08-20T08:05:51.867Z,99510.53
2022-08-20T08:08:41.529Z,99511.31
2022-08-20T08:11:29.842Z,99513.38
2022-08-20T08:14:24.844Z,99516.38
2022-08-20T08:17:12.618Z,99522.66
2022-08-20T08:20:00.341Z,99520.78
2022-08-20T08:22:47.784Z,99520.78
2022-08-20T08:25:35.452Z,99521.84
2022-08-20T08:28:22.918Z,99523.44
2022-08-20T08:31:12.187Z,99529.22
2022-08-20T08:33:59.409Z,99526.25
2022-08-20T08:36:46.675Z,99522.50
2022-08-20T08:39:35.278Z,99522.69
2022-08-20T08:42:30.047Z,99518.34
2022-08-20T08:45:20.026Z,99512.13
2022-08-20T08:48:09.500Z,99513.38
2022-08-20T08:51:12.391Z,99513.88
2022-08-20T08:54:06.009Z,99519.56
2022-08-20T08:56:54.776Z,99521.63
2022-08-20T08:59:52.235Z,99518.34
2022-08-20T09:03:04.679Z,99520.56
2022-08-20T09:05:59.926Z,99514.34
2022-08-20T09:08:53.025Z,99507.81
2022-08-20T09:11:50.192Z,99511.41
2022-08-20T09:14:38.671Z,99528.28
2022-08-20T09:17:26.661Z,99522.88
2022-08-20T09:20:14.346Z,99513.19
2022-08-20T09:23:03.070Z,99510.69
2022-08-20T09:25:50.526Z,99511.31
2022-08-20T09:28:38.893Z,99510.91
2022-08-20T09:31:26.214Z,99513.41
2022-08-20T09:34:14.627Z,99520.47
2022-08-20T09:37:02.212Z,99513.00
2022-08-20T09:39:51.200Z,99517.69
2022-08-20T09:42:41.588Z,99508.00
2022-08-20T09:45:29.560Z,99517.53
2022-08-20T09:48:16.887Z,99508.47
2022-08-20T09:51:04.756Z,99518.78
2022-08-20T09:53:52.925Z,99512.41
2022-08-20T09:56:41.601Z,99521.13
2022-08-20T09:59:30.179Z,99516.44
2022-08-20T10:02:18.012Z,99508.63
2022-08-20T10:05:06.590Z,99519.38
2022-08-20T10:07:56.865Z,99520.31
2022-08-20T10:10:44.708Z,99517.19
2022-08-20T10:13:33.335Z,99513.28
2022-08-20T10:16:20.829Z,99517.00
2022-08-20T10:19:09.831Z,99520.75
2022-08-20T10:21:57.594Z,99512.78
2022-08-20T10:24:44.974Z,99509.50
2022-08-20T10:27:32.362Z,99504.19
2022-08-20T10:30:27.319Z,99510.00
2022-08-20T10:33:18.275Z,99510.47
2022-08-20T10:36:10.768Z,99514.38
2022-08-20T10:38:58.100Z,99509.22
2022-08-20T10:41:45.276Z,99511.72
2022-08-20T10:44:32.488Z,99509.75
2022-08-20T10:47:24.893Z,99511.63
2022-08-20T10:50:17.296Z,99506.81
2022-08-20T10:53:04.703Z,99502.56
2022-08-20T10:55:52.006Z,99494.13
2022-08-20T10:58:41.297Z,99492.72
2022-08-20T11:01:32.929Z,99484.56
2022-08-20T11:04:23.028Z,99480.72
2022-08-20T11:07:21.795Z,99473.84
2022-08-20T11:10:33.280Z,99478.22
2022-08-20T11:13:21.095Z,99482.75
2022-08-20T11:16:09.739Z,99481.94
2022-08-20T11:18:57.819Z,99475.22
2022-08-20T11:21:46.630Z,99469.56
2022-08-20T11:24:34.342Z,99471.59
2022-08-20T11:27:28.234Z,99462.19
2022-08-20T11:30:19.731Z,99457.16
2022-08-20T11:33:08.697Z,99461.84
2022-08-20T11:35:56.540Z,99470.44
2022-08-20T11:38:45.266Z,99467.25
2022-08-20T11:41:32.998Z,99465.53
2022-08-20T11:44:21.700Z,99461.16
2022-08-20T11:47:11.920Z,99462.06
2022-08-20T11:50:01.635Z,99455.78
2022-08-20T11:52:49.146Z,99457.06
2022-08-20T11:55:39.083Z,99454.50
2022-08-20T11:58:26.258Z,99455.47
2022-08-20T12:01:13.992Z,99447.28
2022-08-20T12:04:01.478Z,99451.31
2022-08-20T12:06:48.834Z,99450.69
2022-08-20T12:09:36.430Z,99442.50
2022-08-20T12:12:30.041Z,99450.63
2022-08-20T12:15:17.696Z,99432.56
2022-08-20T12:18:08.456Z,99433.47
2022-08-20T12:20:56.146Z,99434.38
2022-08-20T12:23:43.543Z,99429.97
2022-08-20T12:26:31.068Z,99435.44
2022-08-20T12:29:20.066Z,99434.84
2022-08-20T12:32:08.842Z,99434.94
2022-08-20T12:34:57.387Z,99435.41
2022-08-20T12:37:47.087Z,99426.78
2022-08-20T12:40:36.200Z,99429.22
2022-08-20T12:43:25.152Z,99418.72
2022-08-20T12:46:13.991Z,99415.72
2022-08-20T12:49:01.400Z,99419.63
2022-08-20T12:51:48.791Z,99415.19
2022-08-20T12:54:36.505Z,99413.75
2022-08-20T12:57:30.597Z,99414.22
2022-08-20T13:00:22.650Z,99419.88
2022-08-20T13:03:14.086Z,99421.75
2022-08-20T13:06:02.763Z,99406.53
2022-08-20T13:08:50.168Z,99407.75
2022-08-20T13:11:37.533Z,99407.09
2022-08-20T13:14:25.840Z,99408.00
2022-08-20T13:17:13.571Z,99409.28
2022-08-20T13:20:02.397Z,99402.03
2022-08-20T13:22:50.137Z,99398.25
2022-08-20T13:25:37.717Z,99396.38
2022-08-20T13:28:24.988Z,99396.84
2022-08-20T13:31:12.444Z,99384.72
2022-08-20T13:34:00.437Z,99390.53
2022-08-20T13:36:49.062Z,99387.84
2022-08-20T13:39:40.245Z,99393.19
2022-08-20T13:42:28.544Z,99384.06
2022-08-20T13:45:15.898Z,99385.63
2022-08-20T13:48:03.697Z,99389.50
2022-08-20T13:50:51.742Z,99386.53
2022-08-20T13:53:43.658Z,99384.34
2022-08-20T13:56:31.443Z,99375.53
2022-08-20T13:59:18.795Z,99385.22
2022-08-20T14:02:07.672Z,99370.91
2022-08-20T14:04:56.229Z,99380.13
2022-08-20T14:07:44.387Z,99373.03
2022-08-20T14:10:33.125Z,99373.50
2022-08-20T14:13:23.618Z,99377.38
2022-08-20T14:16:21.345Z,99379.72
2022-08-20T14:19:15.402Z,99375.94
2022-08-20T14:22:02.788Z,99383.59
2022-08-20T14:24:50.738Z,99384.41
2022-08-20T14:27:40.348Z,99379.06
2022-08-20T14:30:31.544Z,99373.72
2022-08-20T14:33:19.082Z,99368.38
2022-08-20T14:36:07.022Z,99379.06
2022-08-20T14:38:54.516Z,99384.41
2022-08-20T14:41:41.839Z,99379.19
2022-08-20T14:44:30.673Z,99376.31
2022-08-20T14:47:22.486Z,99376.31
2022-08-20T14:50:14.046Z,99378.63
2022-08-20T14:53:02.538Z,99397.78
2022-08-20T14:55:50.116Z,99376.06
2022-08-20T14:58:37.404Z,99374.97
2022-08-20T15:01:26.247Z,99373.06
2022-08-20T15:04:13.870Z,99374.19
2022-08-20T15:07:10.962Z,99367.31
2022-08-20T15:10:01.987Z,99368.41
2022-08-20T15:12:49.545Z,99355.06
2022-08-20T15:15:37.073Z,99353.50
2022-08-20T15:18:26.974Z,99348.94
2022-08-20T15:21:17.206Z,99346.72
2022-08-20T15:24:15.807Z,99348.16
2022-08-20T15:27:17.105Z,99344.72
2022-08-20T15:30:12.429Z,99339.06
2022-08-20T15:33:00.526Z,99346.72
2022-08-20T15:35:50.218Z,99342.16
2022-08-20T15:38:38.463Z,99339.50
2022-08-20T15:41:30.406Z,99333.72
2022-08-20T15:44:22.889Z,99330.25
2022-08-20T15:47:22.054Z,99324.59
2022-08-20T15:50:14.926Z,99327.25
2022-08-20T15:53:11.019Z,99320.81
2022-08-20T15:56:10.360Z,99320.81
2022-08-20T15:59:25.997Z,99319.25
2022-08-20T16:02:49.632Z,99318.47
2022-08-20T16:05:50.102Z,99329.16
2022-08-20T16:09:16.511Z,99332.59
2022-08-20T16:12:11.525Z,99330.03
2022-08-20T16:15:03.893Z,99337.72
2022-08-20T16:18:00.769Z,99329.69
2022-08-20T16:20:50.846Z,99342.63
2022-08-20T16:23:41.001Z,99339.94
2022-08-20T16:26:59.643Z,99349.84
2022-08-20T16:30:00.074Z,99349.50
2022-08-20T16:32:52.484Z,99357.50
2022-08-20T16:35:53.054Z,99353.28
2022-08-20T16:38:47.253Z,99360.50
2022-08-20T16:41:41.513Z,99350.16
2022-08-20T16:44:34.576Z,99356.63
2022-08-20T16:47:28.590Z,99360.41
2022-08-20T16:50:21.764Z,99372.19
2022-08-20T16:53:17.585Z,99361.84
2022-08-20T16:56:06.113Z,99364.41
2022-08-20T16:58:55.257Z,99363.19
2022-08-20T17:01:43.112Z,99371.53
2022-08-20T17:04:30.450Z,99376.06
2022-08-20T17:07:33.237Z,99379.53
2022-08-20T17:10:25.217Z,99369.19
2022-08-20T17:13:28.174Z,99375.50
2022-08-20T17:16:23.329Z,99367.69
2022-08-20T17:19:21.298Z,99375.59
2022-08-20T17:22:11.780Z,99370.13
2022-08-20T17:24:59.712Z,99370.78
2022-08-20T17:27:48.704Z,99375.03
2022-08-20T17:30:40.062Z,99375.03
2022-08-20T17:33:35.085Z,99374.56
2022-08-20T17:36:26.226Z,99371.44
2022-08-20T17:39:20.385Z,99370.53
2022-08-20T17:42:11.803Z,99374.94
2022-08-20T17:45:17.664Z,99377.94
2022-08-20T17:48:10.967Z,99382.03
2022-08-20T17:51:02.034Z,99382.38
2022-08-20T17:53:56.324Z,99380.69
2022-08-20T17:56:45.304Z,99392.81
2022-08-20T18:00:00.818Z,99390.69
2022-08-20T18:02:45.466Z,99396.41
2022-08-20T18:05:36.972Z,99396.59
2022-08-20T18:08:38.654Z,99400.22
2022-08-20T18:11:31.814Z,99403.88
2022-08-20T18:14:46.626Z,99413.19
2022-08-20T18:18:14.161Z,99413.81
2022-08-20T18:21:24.556Z,99408.78
2022-08-20T18:24:18.930Z,99416.00
2022-08-20T18:27:13.690Z,99423.22
2022-08-20T18:30:02.490Z,99413.53
2022-08-20T18:33:02.340Z,99415.28
2022-08-20T18:35:49.887Z,99422.81
2022-08-20T18:38:41.909Z,99428.00
2022-08-20T18:41:34.338Z,99430.53
2022-08-20T18:44:31.467Z,99441.06
2022-08-20T18:47:24.568Z,99443.59
2022-08-20T18:50:23.387Z,99448.03
2022-08-20T18:53:19.811Z,99448.19
2022-08-20T18:56:11.913Z,99443.81
2022-08-20T18:59:09.318Z,99452.00
2022-08-20T19:01:56.934Z,99457.19
2022-08-20T19:04:52.801Z,99456.25
2022-08-20T19:07:53.325Z,99459.72
2022-08-20T19:10:49.511Z,99463.34
2022-08-20T19:13:52.384Z,99470.41
2022-08-20T19:16:46.049Z,99471.34
2022-08-20T19:19:34.254Z,99478.41
2022-08-20T19:22:22.483Z,99484.38
2022-08-20T19:25:22.597Z,99483.47
2022-08-20T19:28:22.038Z,99481.25
2022-08-20T19:31:16.505Z,99487.09
2022-08-20T19:34:19.883Z,99481.16
2022-08-20T19:37:35.824Z,99485.06
2022-08-20T19:40:35.081Z,99486.31
2022-08-20T19:43:26.567Z,99488.66
2022-08-20T19:46:17.686Z,99495.22
2022-08-20T19:49:21.563Z,99502.28
2022-08-20T19:52:38.129Z,99508.09
2022-08-20T19:55:30.362Z,99503.22
2022-08-20T19:58:26.668Z,99504.50
2022-08-20T20:01:20.453Z,99506.84
2022-08-20T20:04:18.798Z,99504.63
2022-08-20T20:07:10.032Z,99505.84
2022-08-20T20:09:59.429Z,99500.69
2022-08-20T20:12:49.003Z,99505.06
2022-08-20T20:15:37.210Z,99498.81
2022-08-20T20:18:30.501Z,99502.72
2022-08-20T20:21:26.465Z,99503.94
2022-08-20T20:24:24.791Z,99514.88
2022-08-20T20:27:20.145Z,99513.44
2022-08-20T20:30:13.366Z,99513.13
2022-08-20T20:33:10.918Z,99514.81
2022-08-20T20:36:07.465Z,99510.72
2022-08-20T20:39:03.319Z,99521.19
2022-08-20T20:41:54.917Z,99523.97
2022-08-20T20:44:44.740Z,99514.25
2022-08-20T20:47:34.695Z,99520.66
2022-08-20T20:50:34.861Z,99512.06
2022-08-20T20:53:53.198Z,99515.63
2022-08-20T20:56:44.176Z,99516.06
2022-08-20T20:59:34.526Z,99514.63
2022-08-20T21:02:23.534Z,99524.31
2022-08-20T21:05:12.125Z,99520.69
2022-08-20T21:08:03.109Z,99520.53
2022-08-20T21:10:50.241Z,99524.06
2022-08-20T21:13:39.779Z,99521.28
2022-08-20T21:16:32.098Z,99524.31
2022-08-20T21:19:19.822Z,99516.00
2022-08-20T21:22:09.259Z,99531.75
2022-08-20T21:24:56.688Z,99525.00
2022-08-20T21:27:48.507Z,99527.16
2022-08-20T21:30:37.265Z,99537.59
2022-08-20T21:33:24.817Z,99543.00
2022-08-20T21:36:12.730Z,99534.09
2022-08-20T21:39:00.114Z,99533.28
2022-08-20T21:41:47.718Z,99544.94
2022-08-20T21:44:36.102Z,99540.84
2022-08-20T21:47:25.728Z,99537.53
2022-08-20T21:50:15.432Z,99547.13
2022-08-20T21:53:12.238Z,99541.16
2022-08-20T21:56:01.182Z,99538.94
2022-08-20T21:58:50.488Z,99542.78
2022-08-20T22:01:41.154Z,99537.56
2022-08-20T22:04:34.905Z,99533.38
2022-08-20T22:07:23.588Z,99536.59
2022-08-20T22:10:11.960Z,99544.09
2022-08-20T22:12:59.917Z,99537.78
2022-08-20T22:15:47.597Z,99536.81
2022-08-20T22:18:35.037Z,99548.00
2022-08-20T22:21:27.202Z,99549.53
2022-08-20T22:24:15.758Z,99531.94
2022-08-20T22:27:03.194Z,99546.13
2022-08-20T22:29:51.108Z,99549.63
2022-08-20T22:32:52.396Z,99544.41
2022-08-20T22:35:52.211Z,99548.44
2022-08-20T22:38:41.168Z,99545.09
2022-08-20T22:41:28.802Z,99552.25
2022-08-20T22:44:16.434Z,99552.06
2022-08-20T22:47:08.984Z,99557.66
2022-08-20T22:49:58.906Z,99557.16
2022-08-20T22:52:46.436Z,99564.91
2022-08-20T22:55:35.955Z,99556.47
2022-08-20T22:58:31.103Z,99553.31
2022-08-20T23:01:19.673Z,99558.72
2022-08-20T23:04:14.758Z,99564.09
2022-08-20T23:07:10.442Z,99570.88
2022-08-20T23:10:00.230Z,99561.75
2022-08-20T23:12:49.327Z,99567.13
2022-08-20T23:15:45.674Z,99560.34
2022-08-20T23:18:33.435Z,99562.47
2022-08-20T23:21:20.926Z,99556.69
2022-08-20T23:24:08.377Z,99559.63
2022-08-20T23:27:01.931Z,99558.94
2022-08-20T23:29:51.036Z,99557.94
2022-08-20T23:32:38.533Z,99554.09
2022-08-20T23:35:29.833Z,99553.91
2022-08-20T23:38:20.444Z,99557.63
2022-08-20T23:41:08.147Z,99569.75
2022-08-20T23:43:55.618Z,99554.00
2022-08-20T23:46:44.541Z,99560.63
2022-08-20T23:49:33.396Z,99552.97
2022-08-20T23:52:20.569Z,99552.00
2022-08-20T23:55:09.305Z,99549.44
2022-08-20T23:57:56.925Z,99557.44
